Metar z pełnej godziny Komunikat METAR ze strony awiacja.imgw.pl Metar G00 EPSY METAR EPSY 230100Z VRB01KT 9999 -RA NSC 17/16 Q1007=